sensor_id;sensor_type;location;lat;lon;timestamp;P1;P2;P0
31330;PMS5003;34067;39.548;-76.088;2023-06-01T00:01:32;29;27;
31330;PMS5003;34067;39.548;-76.088;2023-06-01T00:03:59;30;27;
31330;PMS5003;34067;39.548;-76.088;2023-06-01T00:06:27;26;25;
31330;PMS5003;34067;39.548;-76.088;2023-06-01T00:08:55;25;23;
31330;PMS5003;34067;39.548;-76.088;2023-06-01T00:11:23;28;26;
31330;PMS5003;34067;39.548;-76.088;2023-06-01T00:13:51;26;25;
31330;PMS5003;34067;39.548;-76.088;2023-06-01T00:16:19;28;24;
31330;PMS5003;34067;39.548;-76.088;2023-06-01T00:18:48;30;27;
31330;PMS5003;34067;39.548;-76.088;2023-06-01T00:21:16;32;30;
31330;PMS5003;34067;39.548;-76.088;2023-06-01T00:23:43;26;25;
31330;PMS5003;34067;39.548;-76.088;2023-06-01T00:26:11;30;25;
31330;PMS5003;34067;39.548;-76.088;2023-06-01T00:28:40;40;37;
31330;PMS5003;34067;39.548;-76.088;2023-06-01T00:31:07;33;33;
31330;PMS5003;34067;39.548;-76.088;2023-06-01T00:33:35;31;28;
31330;PMS5003;34067;39.548;-76.088;2023-06-01T00:36:04;36;32;
31330;PMS5003;34067;39.548;-76.088;2023-06-01T00:38:32;34;29;
31330;PMS5003;34067;39.548;-76.088;2023-06-01T00:40:59;28;23;
31330;PMS5003;34067;39.548;-76.088;2023-06-01T00:43:27;31;29;
31330;PMS5003;34067;39.548;-76.088;2023-06-01T00:45:55;28;27;
31330;PMS5003;34067;39.548;-76.088;2023-06-01T00:48:23;30;24;
31330;PMS5003;34067;39.548;-76.088;2023-06-01T00:50:51;27;25;
31330;PMS5003;34067;39.548;-76.088;2023-06-01T00:53:19;32;30;
31330;PMS5003;34067;39.548;-76.088;2023-06-01T00:55:47;29;26;
31330;PMS5003;34067;39.548;-76.088;2023-06-01T00:58:15;31;29;
31330;PMS5003;34067;39.548;-76.088;2023-06-01T01:00:43;27;26;
31330;PMS5003;34067;39.548;-76.088;2023-06-01T01:03:11;31;26;
31330;PMS5003;34067;39.548;-76.088;2023-06-01T01:05:39;33;30;
31330;PMS5003;34067;39.548;-76.088;2023-06-01T01:08:09;29;25;
31330;PMS5003;34067;39.548;-76.088;2023-06-01T01:10:45;30;28;
31330;PMS5003;34067;39.548;-76.088;2023-06-01T01:13:18;30;27;
31330;PMS5003;34067;39.548;-76.088;2023-06-01T01:15:52;25;24;
31330;PMS5003;34067;39.548;-76.088;2023-06-01T01:18:28;28;24;
31330;PMS5003;34067;39.548;-76.088;2023-06-01T01:21:03;30;28;
31330;PMS5003;34067;39.548;-76.088;2023-06-01T01:23:38;29;28;
31330;PMS5003;34067;39.548;-76.088;2023-06-01T01:26:26;35;31;
31330;PMS5003;34067;39.548;-76.088;2023-06-01T01:29:08;63;59;
31330;PMS5003;34067;39.548;-76.088;2023-06-01T01:31:38;83;79;
31330;PMS5003;34067;39.548;-76.088;2023-06-01T01:34:07;31;31;
31330;PMS5003;34067;39.548;-76.088;2023-06-01T01:36:36;35;33;
31330;PMS5003;34067;39.548;-76.088;2023-06-01T01:39:04;38;32;
31330;PMS5003;34067;39.548;-76.088;2023-06-01T01:41:31;37;31;
31330;PMS5003;34067;39.548;-76.088;2023-06-01T01:44:00;63;62;
31330;PMS5003;34067;39.548;-76.088;2023-06-01T01:46:29;67;65;
31330;PMS5003;34067;39.548;-76.088;2023-06-01T01:49:06;25;24;
31330;PMS5003;34067;39.548;-76.088;2023-06-01T01:51:42;92;92;
31330;PMS5003;34067;39.548;-76.088;2023-06-01T01:54:15;24;23;
31330;PMS5003;34067;39.548;-76.088;2023-06-01T01:56:45;35;33;
31330;PMS5003;34067;39.548;-76.088;2023-06-01T01:59:14;40;38;
31330;PMS5003;34067;39.548;-76.088;2023-06-01T02:01:44;67;66;
31330;PMS5003;34067;39.548;-76.088;2023-06-01T02:04:13;51;51;
31330;PMS5003;34067;39.548;-76.088;2023-06-01T02:06:41;40;39;
31330;PMS5003;34067;39.548;-76.088;2023-06-01T02:09:08;64;64;
31330;PMS5003;34067;39.548;-76.088;2023-06-01T02:11:36;27;25;
31330;PMS5003;34067;39.548;-76.088;2023-06-01T02:14:05;21;20;
31330;PMS5003;34067;39.548;-76.088;2023-06-01T02:16:33;15;11;
31330;PMS5003;34067;39.548;-76.088;2023-06-01T02:19:00;14;13;
31330;PMS5003;34067;39.548;-76.088;2023-06-01T02:21:29;30;30;
31330;PMS5003;34067;39.548;-76.088;2023-06-01T02:23:57;14;14;
31330;PMS5003;34067;39.548;-76.088;2023-06-01T02:26:25;14;13;
31330;PMS5003;34067;39.548;-76.088;2023-06-01T02:28:53;22;17;
31330;PMS5003;34067;39.548;-76.088;2023-06-01T02:31:21;12;12;
31330;PMS5003;34067;39.548;-76.088;2023-06-01T02:33:49;13;12;
31330;PMS5003;34067;39.548;-76.088;2023-06-01T02:36:17;14;13;
31330;PMS5003;34067;39.548;-76.088;2023-06-01T02:38:45;19;18;
31330;PMS5003;34067;39.548;-76.088;2023-06-01T02:41:12;12;11;
31330;PMS5003;34067;39.548;-76.088;2023-06-01T02:43:40;14;14;
31330;PMS5003;34067;39.548;-76.088;2023-06-01T02:46:08;14;13;
31330;PMS5003;34067;39.548;-76.088;2023-06-01T02:48:36;14;12;
31330;PMS5003;34067;39.548;-76.088;2023-06-01T02:51:04;17;16;
31330;PMS5003;34067;39.548;-76.088;2023-06-01T02:53:33;16;15;
31330;PMS5003;34067;39.548;-76.088;2023-06-01T02:56:01;13;11;
31330;PMS5003;34067;39.548;-76.088;2023-06-01T02:58:29;16;15;
31330;PMS5003;34067;39.548;-76.088;2023-06-01T03:00:57;12;11;
31330;PMS5003;34067;39.548;-76.088;2023-06-01T03:03:25;13;12;
31330;PMS5003;34067;39.548;-76.088;2023-06-01T03:05:53;14;13;
31330;PMS5003;34067;39.548;-76.088;2023-06-01T03:08:21;14;14;
31330;PMS5003;34067;39.548;-76.088;2023-06-01T03:10:49;16;14;
31330;PMS5003;34067;39.548;-76.088;2023-06-01T03:13:17;15;13;
31330;PMS5003;34067;39.548;-76.088;2023-06-01T03:15:44;16;15;
31330;PMS5003;34067;39.548;-76.088;2023-06-01T03:18:12;13;11;
31330;PMS5003;34067;39.548;-76.088;2023-06-01T03:20:39;15;15;
31330;PMS5003;34067;39.548;-76.088;2023-06-01T03:23:07;15;15;
31330;PMS5003;34067;39.548;-76.088;2023-06-01T03:25:35;12;11;
31330;PMS5003;34067;39.548;-76.088;2023-06-01T03:28:03;14;13;
31330;PMS5003;34067;39.548;-76.088;2023-06-01T03:30:31;15;12;
31330;PMS5003;34067;39.548;-76.088;2023-06-01T03:32:59;13;13;
31330;PMS5003;34067;39.548;-76.088;2023-06-01T03:35:27;16;14;
31330;PMS5003;34067;39.548;-76.088;2023-06-01T03:37:55;11;11;
31330;PMS5003;34067;39.548;-76.088;2023-06-01T03:40:23;15;14;
31330;PMS5003;34067;39.548;-76.088;2023-06-01T03:42:51;16;14;
31330;PMS5003;34067;39.548;-76.088;2023-06-01T03:45:19;13;12;
31330;PMS5003;34067;39.548;-76.088;2023-06-01T03:47:47;14;12;
31330;PMS5003;34067;39.548;-76.088;2023-06-01T03:50:14;13;12;
31330;PMS5003;34067;39.548;-76.088;2023-06-01T03:52:42;12;11;
31330;PMS5003;34067;39.548;-76.088;2023-06-01T03:55:10;14;12;
31330;PMS5003;34067;39.548;-76.088;2023-06-01T03:57:38;15;10;
31330;PMS5003;34067;39.548;-76.088;2023-06-01T04:00:07;15;13;
31330;PMS5003;34067;39.548;-76.088;2023-06-01T04:02:36;13;11;
31330;PMS5003;34067;39.548;-76.088;2023-06-01T04:05:03;14;13;
31330;PMS5003;34067;39.548;-76.088;2023-06-01T04:07:31;17;16;
31330;PMS5003;34067;39.548;-76.088;2023-06-01T04:09:59;14;14;
31330;PMS5003;34067;39.548;-76.088;2023-06-01T04:12:26;13;12;
31330;PMS5003;34067;39.548;-76.088;2023-06-01T04:14:55;17;16;
31330;PMS5003;34067;39.548;-76.088;2023-06-01T04:17:22;13;11;
31330;PMS5003;34067;39.548;-76.088;2023-06-01T04:19:50;15;14;
31330;PMS5003;34067;39.548;-76.088;2023-06-01T04:22:18;18;16;
31330;PMS5003;34067;39.548;-76.088;2023-06-01T04:24:47;17;12;
31330;PMS5003;34067;39.548;-76.088;2023-06-01T04:27:15;18;16;
31330;PMS5003;34067;39.548;-76.088;2023-06-01T04:29:43;13;13;
31330;PMS5003;34067;39.548;-76.088;2023-06-01T04:32:10;18;16;
31330;PMS5003;34067;39.548;-76.088;2023-06-01T04:34:38;20;17;
31330;PMS5003;34067;39.548;-76.088;2023-06-01T04:37:06;16;14;
31330;PMS5003;34067;39.548;-76.088;2023-06-01T04:39:37;17;16;
31330;PMS5003;34067;39.548;-76.088;2023-06-01T04:42:04;15;14;
31330;PMS5003;34067;39.548;-76.088;2023-06-01T04:44:33;16;15;
31330;PMS5003;34067;39.548;-76.088;2023-06-01T04:47:01;18;17;
31330;PMS5003;34067;39.548;-76.088;2023-06-01T04:49:29;17;16;
31330;PMS5003;34067;39.548;-76.088;2023-06-01T04:51:57;15;14;
31330;PMS5003;34067;39.548;-76.088;2023-06-01T04:54:24;15;14;
31330;PMS5003;34067;39.548;-76.088;2023-06-01T04:56:52;21;17;
31330;PMS5003;34067;39.548;-76.088;2023-06-01T04:59:20;15;13;
31330;PMS5003;34067;39.548;-76.088;2023-06-01T05:03:14;19;17;
31330;PMS5003;34067;39.548;-76.088;2023-06-01T05:05:42;17;16;
31330;PMS5003;34067;39.548;-76.088;2023-06-01T05:08:11;20;19;
31330;PMS5003;34067;39.548;-76.088;2023-06-01T05:10:39;18;17;
31330;PMS5003;34067;39.548;-76.088;2023-06-01T05:13:07;20;16;
31330;PMS5003;34067;39.548;-76.088;2023-06-01T05:15:35;16;14;
31330;PMS5003;34067;39.548;-76.088;2023-06-01T05:18:03;16;13;
31330;PMS5003;34067;39.548;-76.088;2023-06-01T05:20:31;23;22;
31330;PMS5003;34067;39.548;-76.088;2023-06-01T05:22:59;18;17;
31330;PMS5003;34067;39.548;-76.088;2023-06-01T05:25:27;16;15;
31330;PMS5003;34067;39.548;-76.088;2023-06-01T05:27:54;23;21;
31330;PMS5003;34067;39.548;-76.088;2023-06-01T05:30:21;23;22;
31330;PMS5003;34067;39.548;-76.088;2023-06-01T05:32:49;17;16;
31330;PMS5003;34067;39.548;-76.088;2023-06-01T05:35:17;16;14;
31330;PMS5003;34067;39.548;-76.088;2023-06-01T05:37:44;22;19;
31330;PMS5003;34067;39.548;-76.088;2023-06-01T05:40:12;25;22;
31330;PMS5003;34067;39.548;-76.088;2023-06-01T05:42:41;28;22;
31330;PMS5003;34067;39.548;-76.088;2023-06-01T05:45:09;24;23;
31330;PMS5003;34067;39.548;-76.088;2023-06-01T05:47:37;24;20;
31330;PMS5003;34067;39.548;-76.088;2023-06-01T05:50:05;22;20;
31330;PMS5003;34067;39.548;-76.088;2023-06-01T05:52:33;22;21;
31330;PMS5003;34067;39.548;-76.088;2023-06-01T05:55:01;20;18;
31330;PMS5003;34067;39.548;-76.088;2023-06-01T05:57:29;21;19;
31330;PMS5003;34067;39.548;-76.088;2023-06-01T05:59:57;26;23;
31330;PMS5003;34067;39.548;-76.088;2023-06-01T06:02:25;24;23;
31330;PMS5003;34067;39.548;-76.088;2023-06-01T06:04:52;26;22;
31330;PMS5003;34067;39.548;-76.088;2023-06-01T06:07:20;24;23;
31330;PMS5003;34067;39.548;-76.088;2023-06-01T06:09:48;20;20;
31330;PMS5003;34067;39.548;-76.088;2023-06-01T06:12:15;26;25;
31330;PMS5003;34067;39.548;-76.088;2023-06-01T06:14:43;26;26;
31330;PMS5003;34067;39.548;-76.088;2023-06-01T06:17:11;24;21;
31330;PMS5003;34067;39.548;-76.088;2023-06-01T06:19:38;33;28;
31330;PMS5003;34067;39.548;-76.088;2023-06-01T06:22:06;32;25;
31330;PMS5003;34067;39.548;-76.088;2023-06-01T06:24:34;35;31;
31330;PMS5003;34067;39.548;-76.088;2023-06-01T06:27:02;33;29;
31330;PMS5003;34067;39.548;-76.088;2023-06-01T06:29:30;32;28;
31330;PMS5003;34067;39.548;-76.088;2023-06-01T06:31:58;29;27;
31330;PMS5003;34067;39.548;-76.088;2023-06-01T06:34:26;21;20;
31330;PMS5003;34067;39.548;-76.088;2023-06-01T06:36:54;29;27;
31330;PMS5003;34067;39.548;-76.088;2023-06-01T06:39:22;27;25;
31330;PMS5003;34067;39.548;-76.088;2023-06-01T06:41:51;25;22;
31330;PMS5003;34067;39.548;-76.088;2023-06-01T06:44:18;36;32;
31330;PMS5003;34067;39.548;-76.088;2023-06-01T06:46:46;34;31;
31330;PMS5003;34067;39.548;-76.088;2023-06-01T06:49:14;26;25;
31330;PMS5003;34067;39.548;-76.088;2023-06-01T06:51:42;50;48;
31330;PMS5003;34067;39.548;-76.088;2023-06-01T06:54:09;35;30;
31330;PMS5003;34067;39.548;-76.088;2023-06-01T06:56:37;27;26;
31330;PMS5003;34067;39.548;-76.088;2023-06-01T06:59:05;28;25;
31330;PMS5003;34067;39.548;-76.088;2023-06-01T07:01:33;27;26;
31330;PMS5003;34067;39.548;-76.088;2023-06-01T07:04:02;61;58;
31330;PMS5003;34067;39.548;-76.088;2023-06-01T07:06:31;24;23;
31330;PMS5003;34067;39.548;-76.088;2023-06-01T07:08:59;33;31;
31330;PMS5003;34067;39.548;-76.088;2023-06-01T07:11:27;62;59;
31330;PMS5003;34067;39.548;-76.088;2023-06-01T07:13:54;31;28;
31330;PMS5003;34067;39.548;-76.088;2023-06-01T07:16:22;39;37;
31330;PMS5003;34067;39.548;-76.088;2023-06-01T07:18:50;34;30;
31330;PMS5003;34067;39.548;-76.088;2023-06-01T07:21:18;34;33;
31330;PMS5003;34067;39.548;-76.088;2023-06-01T07:23:46;29;27;
31330;PMS5003;34067;39.548;-76.088;2023-06-01T07:26:14;32;29;
31330;PMS5003;34067;39.548;-76.088;2023-06-01T07:28:42;34;32;
31330;PMS5003;34067;39.548;-76.088;2023-06-01T07:31:10;31;28;
31330;PMS5003;34067;39.548;-76.088;2023-06-01T07:33:38;31;28;
31330;PMS5003;34067;39.548;-76.088;2023-06-01T07:36:07;37;36;
31330;PMS5003;34067;39.548;-76.088;2023-06-01T07:38:34;40;38;
31330;PMS5003;34067;39.548;-76.088;2023-06-01T07:41:02;38;36;
31330;PMS5003;34067;39.548;-76.088;2023-06-01T07:43:30;27;26;
31330;PMS5003;34067;39.548;-76.088;2023-06-01T07:45:58;43;39;
31330;PMS5003;34067;39.548;-76.088;2023-06-01T07:48:25;38;36;
31330;PMS5003;34067;39.548;-76.088;2023-06-01T07:50:53;33;33;
31330;PMS5003;34067;39.548;-76.088;2023-06-01T07:53:21;57;53;
31330;PMS5003;34067;39.548;-76.088;2023-06-01T07:55:48;32;31;
31330;PMS5003;34067;39.548;-76.088;2023-06-01T07:58:16;35;34;
31330;PMS5003;34067;39.548;-76.088;2023-06-01T08:00:44;34;31;
31330;PMS5003;34067;39.548;-76.088;2023-06-01T08:03:12;49;42;
31330;PMS5003;34067;39.548;-76.088;2023-06-01T08:05:40;37;36;
31330;PMS5003;34067;39.548;-76.088;2023-06-01T08:08:08;38;36;
31330;PMS5003;34067;39.548;-76.088;2023-06-01T08:10:36;59;59;
31330;PMS5003;34067;39.548;-76.088;2023-06-01T08:13:04;34;32;
31330;PMS5003;34067;39.548;-76.088;2023-06-01T08:15:31;41;38;
31330;PMS5003;34067;39.548;-76.088;2023-06-01T08:17:59;38;35;
31330;PMS5003;34067;39.548;-76.088;2023-06-01T08:20:28;41;40;
31330;PMS5003;34067;39.548;-76.088;2023-06-01T08:22:55;38;37;
31330;PMS5003;34067;39.548;-76.088;2023-06-01T08:25:23;30;28;
31330;PMS5003;34067;39.548;-76.088;2023-06-01T08:27:51;27;24;
31330;PMS5003;34067;39.548;-76.088;2023-06-01T08:30:18;34;30;
31330;PMS5003;34067;39.548;-76.088;2023-06-01T08:32:46;24;22;
31330;PMS5003;34067;39.548;-76.088;2023-06-01T08:35:14;23;19;
31330;PMS5003;34067;39.548;-76.088;2023-06-01T08:37:41;22;18;
31330;PMS5003;34067;39.548;-76.088;2023-06-01T08:40:09;28;25;
31330;PMS5003;34067;39.548;-76.088;2023-06-01T08:42:39;22;21;
31330;PMS5003;34067;39.548;-76.088;2023-06-01T08:45:16;23;19;
31330;PMS5003;34067;39.548;-76.088;2023-06-01T08:47:45;31;26;
31330;PMS5003;34067;39.548;-76.088;2023-06-01T08:50:15;25;24;
31330;PMS5003;34067;39.548;-76.088;2023-06-01T08:52:43;22;20;
31330;PMS5003;34067;39.548;-76.088;2023-06-01T08:55:14;30;24;
31330;PMS5003;34067;39.548;-76.088;2023-06-01T08:57:41;26;25;
31330;PMS5003;34067;39.548;-76.088;2023-06-01T09:00:11;26;24;
31330;PMS5003;34067;39.548;-76.088;2023-06-01T09:02:39;26;24;
31330;PMS5003;34067;39.548;-76.088;2023-06-01T09:05:08;24;22;
31330;PMS5003;34067;39.548;-76.088;2023-06-01T09:07:36;29;26;
31330;PMS5003;34067;39.548;-76.088;2023-06-01T09:10:04;30;26;
31330;PMS5003;34067;39.548;-76.088;2023-06-01T09:12:33;30;28;
31330;PMS5003;34067;39.548;-76.088;2023-06-01T09:15:07;27;24;
31330;PMS5003;34067;39.548;-76.088;2023-06-01T09:17:37;25;24;
31330;PMS5003;34067;39.548;-76.088;2023-06-01T09:20:06;24;22;
31330;PMS5003;34067;39.548;-76.088;2023-06-01T09:22:39;34;27;
31330;PMS5003;34067;39.548;-76.088;2023-06-01T09:25:09;29;26;
31330;PMS5003;34067;39.548;-76.088;2023-06-01T09:27:43;27;25;
31330;PMS5003;34067;39.548;-76.088;2023-06-01T09:30:12;31;28;
31330;PMS5003;34067;39.548;-76.088;2023-06-01T09:32:40;29;26;
31330;PMS5003;34067;39.548;-76.088;2023-06-01T09:35:09;30;30;
31330;PMS5003;34067;39.548;-76.088;2023-06-01T09:37:37;27;24;
31330;PMS5003;34067;39.548;-76.088;2023-06-01T09:40:16;31;28;
31330;PMS5003;34067;39.548;-76.088;2023-06-01T09:42:45;29;24;
31330;PMS5003;34067;39.548;-76.088;2023-06-01T09:45:14;30;28;
31330;PMS5003;34067;39.548;-76.088;2023-06-01T09:47:43;35;32;
31330;PMS5003;34067;39.548;-76.088;2023-06-01T09:50:12;33;28;
31330;PMS5003;34067;39.548;-76.088;2023-06-01T09:53:00;26;22;
31330;PMS5003;34067;39.548;-76.088;2023-06-01T09:55:28;35;32;
31330;PMS5003;34067;39.548;-76.088;2023-06-01T09:58:28;26;24;
31330;PMS5003;34067;39.548;-76.088;2023-06-01T10:00:56;30;27;
31330;PMS5003;34067;39.548;-76.088;2023-06-01T10:03:27;28;24;
31330;PMS5003;34067;39.548;-76.088;2023-06-01T10:05:55;33;27;
31330;PMS5003;34067;39.548;-76.088;2023-06-01T10:08:24;28;25;
31330;PMS5003;34067;39.548;-76.088;2023-06-01T10:10:52;26;26;
31330;PMS5003;34067;39.548;-76.088;2023-06-01T10:13:20;33;26;
31330;PMS5003;34067;39.548;-76.088;2023-06-01T10:15:49;26;25;
31330;PMS5003;34067;39.548;-76.088;2023-06-01T10:18:19;34;30;
31330;PMS5003;34067;39.548;-76.088;2023-06-01T10:20:48;29;24;
31330;PMS5003;34067;39.548;-76.088;2023-06-01T10:23:16;33;27;
31330;PMS5003;34067;39.548;-76.088;2023-06-01T10:25:46;31;28;
31330;PMS5003;34067;39.548;-76.088;2023-06-01T10:28:16;28;27;
31330;PMS5003;34067;39.548;-76.088;2023-06-01T10:30:44;36;31;
31330;PMS5003;34067;39.548;-76.088;2023-06-01T10:33:13;27;25;
31330;PMS5003;34067;39.548;-76.088;2023-06-01T10:35:51;40;33;
31330;PMS5003;34067;39.548;-76.088;2023-06-01T10:38:22;33;29;
31330;PMS5003;34067;39.548;-76.088;2023-06-01T10:40:51;30;29;
31330;PMS5003;34067;39.548;-76.088;2023-06-01T10:43:53;30;29;
31330;PMS5003;34067;39.548;-76.088;2023-06-01T10:46:37;37;33;
31330;PMS5003;34067;39.548;-76.088;2023-06-01T10:49:07;29;26;
31330;PMS5003;34067;39.548;-76.088;2023-06-01T10:51:35;35;30;
31330;PMS5003;34067;39.548;-76.088;2023-06-01T10:54:35;30;28;
31330;PMS5003;34067;39.548;-76.088;2023-06-01T10:57:21;29;26;
31330;PMS5003;34067;39.548;-76.088;2023-06-01T11:00:22;30;28;
31330;PMS5003;34067;39.548;-76.088;2023-06-01T11:02:53;24;22;
31330;PMS5003;34067;39.548;-76.088;2023-06-01T11:05:40;33;32;
31330;PMS5003;34067;39.548;-76.088;2023-06-01T11:08:50;33;30;
31330;PMS5003;34067;39.548;-76.088;2023-06-01T11:11:20;30;26;
31330;PMS5003;34067;39.548;-76.088;2023-06-01T11:14:21;39;34;
31330;PMS5003;34067;39.548;-76.088;2023-06-01T11:16:50;31;28;
31330;PMS5003;34067;39.548;-76.088;2023-06-01T11:19:19;28;24;
31330;PMS5003;34067;39.548;-76.088;2023-06-01T11:21:48;31;30;
31330;PMS5003;34067;39.548;-76.088;2023-06-01T11:24:23;33;29;
31330;PMS5003;34067;39.548;-76.088;2023-06-01T11:26:58;36;32;
31330;PMS5003;34067;39.548;-76.088;2023-06-01T11:29:27;37;31;
31330;PMS5003;34067;39.548;-76.088;2023-06-01T11:31:55;33;28;
31330;PMS5003;34067;39.548;-76.088;2023-06-01T11:34:28;32;30;
31330;PMS5003;34067;39.548;-76.088;2023-06-01T11:36:58;30;28;
31330;PMS5003;34067;39.548;-76.088;2023-06-01T11:39:27;36;29;
31330;PMS5003;34067;39.548;-76.088;2023-06-01T11:42:04;33;28;
31330;PMS5003;34067;39.548;-76.088;2023-06-01T11:44:33;37;33;
31330;PMS5003;34067;39.548;-76.088;2023-06-01T11:47:04;30;26;
31330;PMS5003;34067;39.548;-76.088;2023-06-01T11:49:39;31;27;
31330;PMS5003;34067;39.548;-76.088;2023-06-01T11:52:08;37;33;
31330;PMS5003;34067;39.548;-76.088;2023-06-01T11:54:37;28;26;
31330;PMS5003;34067;39.548;-76.088;2023-06-01T11:57:06;34;33;
31330;PMS5003;34067;39.548;-76.088;2023-06-01T11:59:37;28;27;
31330;PMS5003;34067;39.548;-76.088;2023-06-01T12:02:16;34;31;
31330;PMS5003;34067;39.548;-76.088;2023-06-01T12:04:54;32;29;
31330;PMS5003;34067;39.548;-76.088;2023-06-01T12:07:23;25;23;
31330;PMS5003;34067;39.548;-76.088;2023-06-01T12:09:51;31;26;
31330;PMS5003;34067;39.548;-76.088;2023-06-01T12:12:21;31;28;
31330;PMS5003;34067;39.548;-76.088;2023-06-01T12:14:49;33;32;
31330;PMS5003;34067;39.548;-76.088;2023-06-01T12:17:18;31;29;
31330;PMS5003;34067;39.548;-76.088;2023-06-01T12:19:46;34;30;
31330;PMS5003;34067;39.548;-76.088;2023-06-01T12:22:15;28;27;
31330;PMS5003;34067;39.548;-76.088;2023-06-01T12:24:44;24;22;
31330;PMS5003;34067;39.548;-76.088;2023-06-01T12:27:14;32;32;
31330;PMS5003;34067;39.548;-76.088;2023-06-01T12:29:43;29;26;
31330;PMS5003;34067;39.548;-76.088;2023-06-01T12:32:13;27;25;
31330;PMS5003;34067;39.548;-76.088;2023-06-01T12:34:41;25;21;
31330;PMS5003;34067;39.548;-76.088;2023-06-01T12:37:10;31;27;
31330;PMS5003;34067;39.548;-76.088;2023-06-01T12:39:40;26;23;
31330;PMS5003;34067;39.548;-76.088;2023-06-01T12:42:09;26;23;
31330;PMS5003;34067;39.548;-76.088;2023-06-01T12:44:37;18;18;
31330;PMS5003;34067;39.548;-76.088;2023-06-01T12:47:06;18;17;
31330;PMS5003;34067;39.548;-76.088;2023-06-01T12:49:34;27;24;
31330;PMS5003;34067;39.548;-76.088;2023-06-01T12:52:03;26;22;
31330;PMS5003;34067;39.548;-76.088;2023-06-01T12:54:31;22;19;
31330;PMS5003;34067;39.548;-76.088;2023-06-01T12:56:59;26;23;
31330;PMS5003;34067;39.548;-76.088;2023-06-01T12:59:27;22;22;
31330;PMS5003;34067;39.548;-76.088;2023-06-01T13:01:55;23;21;
31330;PMS5003;34067;39.548;-76.088;2023-06-01T13:04:23;24;21;
31330;PMS5003;34067;39.548;-76.088;2023-06-01T13:06:51;24;20;
31330;PMS5003;34067;39.548;-76.088;2023-06-01T13:09:18;21;20;
31330;PMS5003;34067;39.548;-76.088;2023-06-01T13:11:46;25;21;
31330;PMS5003;34067;39.548;-76.088;2023-06-01T13:14:13;21;20;
31330;PMS5003;34067;39.548;-76.088;2023-06-01T13:16:40;22;18;
31330;PMS5003;34067;39.548;-76.088;2023-06-01T13:19:08;24;18;
31330;PMS5003;34067;39.548;-76.088;2023-06-01T13:21:36;18;18;
31330;PMS5003;34067;39.548;-76.088;2023-06-01T13:24:04;20;18;
31330;PMS5003;34067;39.548;-76.088;2023-06-01T13:26:32;20;17;
31330;PMS5003;34067;39.548;-76.088;2023-06-01T13:29:00;18;15;
31330;PMS5003;34067;39.548;-76.088;2023-06-01T13:31:28;17;16;
31330;PMS5003;34067;39.548;-76.088;2023-06-01T13:33:56;18;16;
31330;PMS5003;34067;39.548;-76.088;2023-06-01T13:36:24;17;16;
31330;PMS5003;34067;39.548;-76.088;2023-06-01T13:38:52;17;15;
31330;PMS5003;34067;39.548;-76.088;2023-06-01T13:41:19;17;15;
31330;PMS5003;34067;39.548;-76.088;2023-06-01T13:43:47;15;14;
31330;PMS5003;34067;39.548;-76.088;2023-06-01T13:46:15;13;13;
31330;PMS5003;34067;39.548;-76.088;2023-06-01T13:48:43;14;12;
31330;PMS5003;34067;39.548;-76.088;2023-06-01T13:51:12;15;14;
31330;PMS5003;34067;39.548;-76.088;2023-06-01T13:53:40;11;10;
31330;PMS5003;34067;39.548;-76.088;2023-06-01T13:56:09;14;13;
31330;PMS5003;34067;39.548;-76.088;2023-06-01T13:58:37;16;15;
31330;PMS5003;34067;39.548;-76.088;2023-06-01T14:01:05;11;11;
31330;PMS5003;34067;39.548;-76.088;2023-06-01T14:03:33;12;12;
31330;PMS5003;34067;39.548;-76.088;2023-06-01T14:06:00;9;8;
31330;PMS5003;34067;39.548;-76.088;2023-06-01T14:08:28;13;12;
31330;PMS5003;34067;39.548;-76.088;2023-06-01T14:10:56;45;44;
31330;PMS5003;34067;39.548;-76.088;2023-06-01T14:13:24;67;66;
31330;PMS5003;34067;39.548;-76.088;2023-06-01T14:15:51;55;51;
31330;PMS5003;34067;39.548;-76.088;2023-06-01T14:18:19;17;17;
31330;PMS5003;34067;39.548;-76.088;2023-06-01T14:20:47;18;18;
31330;PMS5003;34067;39.548;-76.088;2023-06-01T14:23:15;19;17;
31330;PMS5003;34067;39.548;-76.088;2023-06-01T14:25:44;11;10;
31330;PMS5003;34067;39.548;-76.088;2023-06-01T14:28:12;12;12;
31330;PMS5003;34067;39.548;-76.088;2023-06-01T14:30:40;12;10;
31330;PMS5003;34067;39.548;-76.088;2023-06-01T14:33:08;12;12;
31330;PMS5003;34067;39.548;-76.088;2023-06-01T14:35:35;11;9;
31330;PMS5003;34067;39.548;-76.088;2023-06-01T14:38:03;9;8;
31330;PMS5003;34067;39.548;-76.088;2023-06-01T14:40:30;13;11;
31330;PMS5003;34067;39.548;-76.088;2023-06-01T14:42:58;10;10;
31330;PMS5003;34067;39.548;-76.088;2023-06-01T14:45:26;10;10;
31330;PMS5003;34067;39.548;-76.088;2023-06-01T14:47:54;10;10;
31330;PMS5003;34067;39.548;-76.088;2023-06-01T14:50:23;17;16;
31330;PMS5003;34067;39.548;-76.088;2023-06-01T14:52:51;33;33;
31330;PMS5003;34067;39.548;-76.088;2023-06-01T14:55:19;16;16;
31330;PMS5003;34067;39.548;-76.088;2023-06-01T14:57:47;15;15;
31330;PMS5003;34067;39.548;-76.088;2023-06-01T15:00:15;17;14;
31330;PMS5003;34067;39.548;-76.088;2023-06-01T15:02:44;12;12;
31330;PMS5003;34067;39.548;-76.088;2023-06-01T15:05:11;10;9;
31330;PMS5003;34067;39.548;-76.088;2023-06-01T15:07:39;14;12;
31330;PMS5003;34067;39.548;-76.088;2023-06-01T15:10:07;11;10;
31330;PMS5003;34067;39.548;-76.088;2023-06-01T15:12:35;13;11;
31330;PMS5003;34067;39.548;-76.088;2023-06-01T15:15:03;10;10;
31330;PMS5003;34067;39.548;-76.088;2023-06-01T15:17:32;15;14;
31330;PMS5003;34067;39.548;-76.088;2023-06-01T15:19:59;13;13;
31330;PMS5003;34067;39.548;-76.088;2023-06-01T15:22:27;20;18;
31330;PMS5003;34067;39.548;-76.088;2023-06-01T15:24:54;19;16;
31330;PMS5003;34067;39.548;-76.088;2023-06-01T15:27:22;23;22;
31330;PMS5003;34067;39.548;-76.088;2023-06-01T15:29:50;21;20;
31330;PMS5003;34067;39.548;-76.088;2023-06-01T15:32:18;16;14;
31330;PMS5003;34067;39.548;-76.088;2023-06-01T15:34:46;17;16;
31330;PMS5003;34067;39.548;-76.088;2023-06-01T15:37:14;13;12;
31330;PMS5003;34067;39.548;-76.088;2023-06-01T15:39:42;9;8;
31330;PMS5003;34067;39.548;-76.088;2023-06-01T15:42:09;10;7;
31330;PMS5003;34067;39.548;-76.088;2023-06-01T15:44:38;12;12;
31330;PMS5003;34067;39.548;-76.088;2023-06-01T15:47:07;14;11;
31330;PMS5003;34067;39.548;-76.088;2023-06-01T15:49:36;15;15;
31330;PMS5003;34067;39.548;-76.088;2023-06-01T15:52:05;20;18;
31330;PMS5003;34067;39.548;-76.088;2023-06-01T15:54:34;23;21;
31330;PMS5003;34067;39.548;-76.088;2023-06-01T15:57:02;26;23;
31330;PMS5003;34067;39.548;-76.088;2023-06-01T15:59:31;34;29;
31330;PMS5003;34067;39.548;-76.088;2023-06-01T16:01:59;20;18;